sensor_id;sensor_type;location;lat;lon;timestamp;temperature;humidity
29577;DHT22;16509;53.862;10.672;2022-08-01T00:00:29;17.90;99.90
29577;DHT22;16509;53.862;10.672;2022-08-01T00:02:54;17.80;99.90
29577;DHT22;16509;53.862;10.672;2022-08-01T00:05:20;19.20;99.90
29577;DHT22;16509;53.862;10.672;2022-08-01T00:07:45;17.90;99.90
29577;DHT22;16509;53.862;10.672;2022-08-01T00:10:13;17.90;99.90
29577;DHT22;16509;53.862;10.672;2022-08-01T00:12:39;18.20;99.90
29577;DHT22;16509;53.862;10.672;2022-08-01T00:15:07;18.10;99.90
29577;DHT22;16509;53.862;10.672;2022-08-01T00:17:33;17.90;99.90
29577;DHT22;16509;53.862;10.672;2022-08-01T00:19:59;17.90;99.90
29577;DHT22;16509;53.862;10.672;2022-08-01T00:22:25;17.90;99.90
29577;DHT22;16509;53.862;10.672;2022-08-01T00:24:51;17.90;99.90
29577;DHT22;16509;53.862;10.672;2022-08-01T00:27:16;17.70;99.90
29577;DHT22;16509;53.862;10.672;2022-08-01T00:29:42;18.00;99.90
29577;DHT22;16509;53.862;10.672;2022-08-01T00:32:07;18.00;99.90
29577;DHT22;16509;53.862;10.672;2022-08-01T00:34:33;17.90;99.90
29577;DHT22;16509;53.862;10.672;2022-08-01T00:36:59;18.40;99.90
29577;DHT22;16509;53.862;10.672;2022-08-01T00:39:24;18.00;99.90
29577;DHT22;16509;53.862;10.672;2022-08-01T00:41:50;17.90;99.90
29577;DHT22;16509;53.862;10.672;2022-08-01T00:44:16;18.00;99.90
29577;DHT22;16509;53.862;10.672;2022-08-01T00:46:41;17.90;99.90
29577;DHT22;16509;53.862;10.672;2022-08-01T00:49:07;17.90;99.90
29577;DHT22;16509;53.862;10.672;2022-08-01T00:51:33;18.00;99.90
29577;DHT22;16509;53.862;10.672;2022-08-01T00:53:59;17.90;99.90
29577;DHT22;16509;53.862;10.672;2022-08-01T00:56:27;18.10;99.90
29577;DHT22;16509;53.862;10.672;2022-08-01T00:58:54;18.60;99.90
29577;DHT22;16509;53.862;10.672;2022-08-01T01:01:20;17.90;99.90
29577;DHT22;16509;53.862;10.672;2022-08-01T01:03:51;18.10;99.90
29577;DHT22;16509;53.862;10.672;2022-08-01T01:06:28;18.40;99.90
29577;DHT22;16509;53.862;10.672;2022-08-01T01:09:16;18.00;99.90
29577;DHT22;16509;53.862;10.672;2022-08-01T01:14:23;18.20;99.90
29577;DHT22;16509;53.862;10.672;2022-08-01T01:16:53;18.00;99.90
29577;DHT22;16509;53.862;10.672;2022-08-01T01:19:23;18.00;99.90
29577;DHT22;16509;53.862;10.672;2022-08-01T01:24:35;18.10;99.90
29577;DHT22;16509;53.862;10.672;2022-08-01T01:29:48;18.20;99.90
29577;DHT22;16509;53.862;10.672;2022-08-01T01:32:20;18.00;99.90
29577;DHT22;16509;53.862;10.672;2022-08-01T01:34:49;18.00;99.90
29577;DHT22;16509;53.862;10.672;2022-08-01T01:37:18;18.30;99.90
29577;DHT22;16509;53.862;10.672;2022-08-01T01:39:46;18.10;99.90
29577;DHT22;16509;53.862;10.672;2022-08-01T01:42:14;18.40;99.90
29577;DHT22;16509;53.862;10.672;2022-08-01T01:44:40;18.00;99.90
29577;DHT22;16509;53.862;10.672;2022-08-01T01:47:06;18.20;99.90
29577;DHT22;16509;53.862;10.672;2022-08-01T01:49:33;18.20;99.90
29577;DHT22;16509;53.862;10.672;2022-08-01T01:51:59;18.30;99.90
29577;DHT22;16509;53.862;10.672;2022-08-01T01:54:33;19.10;99.90
29577;DHT22;16509;53.862;10.672;2022-08-01T01:57:02;18.20;99.90
29577;DHT22;16509;53.862;10.672;2022-08-01T01:59:31;18.20;99.90
29577;DHT22;16509;53.862;10.672;2022-08-01T02:01:59;18.00;99.90
29577;DHT22;16509;53.862;10.672;2022-08-01T02:04:28;18.20;99.90
29577;DHT22;16509;53.862;10.672;2022-08-01T02:06:54;18.20;99.90
29577;DHT22;16509;53.862;10.672;2022-08-01T02:09:21;18.20;99.90
29577;DHT22;16509;53.862;10.672;2022-08-01T02:11:49;18.70;99.90
29577;DHT22;16509;53.862;10.672;2022-08-01T02:14:17;18.10;99.90
29577;DHT22;16509;53.862;10.672;2022-08-01T02:16:45;18.10;99.90
29577;DHT22;16509;53.862;10.672;2022-08-01T02:19:12;18.10;99.90
29577;DHT22;16509;53.862;10.672;2022-08-01T02:21:54;20.10;99.90
29577;DHT22;16509;53.862;10.672;2022-08-01T02:30:13;18.00;99.90
29577;DHT22;16509;53.862;10.672;2022-08-01T02:32:44;17.80;99.90
29577;DHT22;16509;53.862;10.672;2022-08-01T02:35:13;18.00;99.90
29577;DHT22;16509;53.862;10.672;2022-08-01T02:37:43;18.10;99.90
29577;DHT22;16509;53.862;10.672;2022-08-01T02:40:12;18.10;99.90
29577;DHT22;16509;53.862;10.672;2022-08-01T02:42:39;18.00;99.90
29577;DHT22;16509;53.862;10.672;2022-08-01T02:45:09;18.90;99.90
29577;DHT22;16509;53.862;10.672;2022-08-01T02:47:36;18.00;99.90
29577;DHT22;16509;53.862;10.672;2022-08-01T02:50:03;18.50;99.90
29577;DHT22;16509;53.862;10.672;2022-08-01T02:52:29;18.10;99.90
29577;DHT22;16509;53.862;10.672;2022-08-01T02:54:56;18.00;99.90
29577;DHT22;16509;53.862;10.672;2022-08-01T02:57:24;18.10;99.90
29577;DHT22;16509;53.862;10.672;2022-08-01T02:59:51;18.00;99.90
29577;DHT22;16509;53.862;10.672;2022-08-01T03:02:19;18.10;99.90
29577;DHT22;16509;53.862;10.672;2022-08-01T03:04:47;18.30;99.90
29577;DHT22;16509;53.862;10.672;2022-08-01T03:07:14;18.10;99.90
29577;DHT22;16509;53.862;10.672;2022-08-01T03:09:44;18.10;99.90
29577;DHT22;16509;53.862;10.672;2022-08-01T03:12:17;18.00;99.90
29577;DHT22;16509;53.862;10.672;2022-08-01T03:14:44;18.00;99.90
29577;DHT22;16509;53.862;10.672;2022-08-01T03:17:11;18.10;99.90
29577;DHT22;16509;53.862;10.672;2022-08-01T03:19:39;18.30;99.90
29577;DHT22;16509;53.862;10.672;2022-08-01T03:22:09;18.70;99.90
29577;DHT22;16509;53.862;10.672;2022-08-01T03:24:38;18.10;99.90
29577;DHT22;16509;53.862;10.672;2022-08-01T03:27:06;18.00;99.90
29577;DHT22;16509;53.862;10.672;2022-08-01T03:29:33;18.00;99.90
29577;DHT22;16509;53.862;10.672;2022-08-01T03:32:01;18.00;99.90
29577;DHT22;16509;53.862;10.672;2022-08-01T03:34:28;18.00;99.90
29577;DHT22;16509;53.862;10.672;2022-08-01T03:37:07;17.90;99.90
29577;DHT22;16509;53.862;10.672;2022-08-01T03:39:42;17.90;99.90
29577;DHT22;16509;53.862;10.672;2022-08-01T03:42:15;18.00;99.90
29577;DHT22;16509;53.862;10.672;2022-08-01T03:44:45;17.90;99.90
29577;DHT22;16509;53.862;10.672;2022-08-01T03:47:15;18.00;99.90
29577;DHT22;16509;53.862;10.672;2022-08-01T03:49:44;17.90;99.90
29577;DHT22;16509;53.862;10.672;2022-08-01T03:52:11;19.00;99.90
29577;DHT22;16509;53.862;10.672;2022-08-01T03:54:41;18.10;99.90
29577;DHT22;16509;53.862;10.672;2022-08-01T03:57:09;18.50;99.90
29577;DHT22;16509;53.862;10.672;2022-08-01T03:59:35;18.00;99.90
29577;DHT22;16509;53.862;10.672;2022-08-01T04:02:02;18.10;99.90
29577;DHT22;16509;53.862;10.672;2022-08-01T04:04:28;18.40;99.90
29577;DHT22;16509;53.862;10.672;2022-08-01T04:06:54;18.10;99.90
29577;DHT22;16509;53.862;10.672;2022-08-01T04:09:21;18.20;99.90
29577;DHT22;16509;53.862;10.672;2022-08-01T04:11:48;18.00;99.90
29577;DHT22;16509;53.862;10.672;2022-08-01T04:14:14;18.10;99.90
29577;DHT22;16509;53.862;10.672;2022-08-01T04:16:39;18.70;99.90
29577;DHT22;16509;53.862;10.672;2022-08-01T04:19:05;18.10;99.90
29577;DHT22;16509;53.862;10.672;2022-08-01T04:21:35;19.40;99.90
29577;DHT22;16509;53.862;10.672;2022-08-01T04:24:09;18.00;99.90
29577;DHT22;16509;53.862;10.672;2022-08-01T04:26:37;17.90;99.90
29577;DHT22;16509;53.862;10.672;2022-08-01T04:29:05;18.10;99.90
29577;DHT22;16509;53.862;10.672;2022-08-01T04:31:32;17.90;99.90
29577;DHT22;16509;53.862;10.672;2022-08-01T04:34:01;18.30;99.90
29577;DHT22;16509;53.862;10.672;2022-08-01T04:36:28;18.00;99.90
29577;DHT22;16509;53.862;10.672;2022-08-01T04:39:00;18.00;99.90
29577;DHT22;16509;53.862;10.672;2022-08-01T04:41:26;17.90;99.90
29577;DHT22;16509;53.862;10.672;2022-08-01T04:43:53;18.00;99.90
29577;DHT22;16509;53.862;10.672;2022-08-01T04:46:20;18.00;99.90
29577;DHT22;16509;53.862;10.672;2022-08-01T04:48:47;18.00;99.90
29577;DHT22;16509;53.862;10.672;2022-08-01T04:51:14;17.90;99.90
29577;DHT22;16509;53.862;10.672;2022-08-01T04:53:43;18.20;99.90
29577;DHT22;16509;53.862;10.672;2022-08-01T04:56:11;17.90;99.90
29577;DHT22;16509;53.862;10.672;2022-08-01T04:58:39;18.10;99.90
29577;DHT22;16509;53.862;10.672;2022-08-01T05:01:06;18.00;99.90
29577;DHT22;16509;53.862;10.672;2022-08-01T05:03:32;18.10;99.90
29577;DHT22;16509;53.862;10.672;2022-08-01T05:05:57;17.80;99.90
29577;DHT22;16509;53.862;10.672;2022-08-01T05:08:23;17.90;99.90
29577;DHT22;16509;53.862;10.672;2022-08-01T05:10:48;17.90;99.90
29577;DHT22;16509;53.862;10.672;2022-08-01T05:13:14;17.80;99.90
29577;DHT22;16509;53.862;10.672;2022-08-01T05:15:40;17.90;99.90
29577;DHT22;16509;53.862;10.672;2022-08-01T05:18:06;18.80;99.90
29577;DHT22;16509;53.862;10.672;2022-08-01T05:20:32;17.80;99.90
29577;DHT22;16509;53.862;10.672;2022-08-01T05:22:57;17.90;99.90
29577;DHT22;16509;53.862;10.672;2022-08-01T05:25:23;17.90;99.90
29577;DHT22;16509;53.862;10.672;2022-08-01T05:27:49;17.90;99.90
29577;DHT22;16509;53.862;10.672;2022-08-01T05:30:15;17.90;99.90
29577;DHT22;16509;53.862;10.672;2022-08-01T05:32:41;18.40;99.90
29577;DHT22;16509;53.862;10.672;2022-08-01T05:35:07;18.00;99.90
29577;DHT22;16509;53.862;10.672;2022-08-01T05:37:33;18.00;99.90
29577;DHT22;16509;53.862;10.672;2022-08-01T05:39:59;18.10;99.90
29577;DHT22;16509;53.862;10.672;2022-08-01T05:42:24;19.30;99.90
29577;DHT22;16509;53.862;10.672;2022-08-01T05:44:50;18.00;99.90
29577;DHT22;16509;53.862;10.672;2022-08-01T05:47:16;18.00;99.90
29577;DHT22;16509;53.862;10.672;2022-08-01T05:49:42;17.70;99.90
29577;DHT22;16509;53.862;10.672;2022-08-01T05:52:08;18.00;99.90
29577;DHT22;16509;53.862;10.672;2022-08-01T05:54:34;17.80;99.90
29577;DHT22;16509;53.862;10.672;2022-08-01T05:56:59;19.00;99.90
29577;DHT22;16509;53.862;10.672;2022-08-01T05:59:30;18.90;99.90
29577;DHT22;16509;53.862;10.672;2022-08-01T06:01:56;17.80;99.90
29577;DHT22;16509;53.862;10.672;2022-08-01T06:04:22;17.90;99.90
29577;DHT22;16509;53.862;10.672;2022-08-01T06:06:47;19.40;99.90
29577;DHT22;16509;53.862;10.672;2022-08-01T06:09:13;18.00;99.90
29577;DHT22;16509;53.862;10.672;2022-08-01T06:11:39;18.10;99.90
29577;DHT22;16509;53.862;10.672;2022-08-01T06:14:04;18.30;99.90
29577;DHT22;16509;53.862;10.672;2022-08-01T06:16:30;18.00;99.90
29577;DHT22;16509;53.862;10.672;2022-08-01T06:18:55;18.10;99.90
29577;DHT22;16509;53.862;10.672;2022-08-01T06:21:21;17.90;99.90
29577;DHT22;16509;53.862;10.672;2022-08-01T06:23:47;18.10;99.90
29577;DHT22;16509;53.862;10.672;2022-08-01T06:26:12;18.10;99.90
29577;DHT22;16509;53.862;10.672;2022-08-01T06:28:38;17.90;99.90
29577;DHT22;16509;53.862;10.672;2022-08-01T06:31:04;18.00;99.90
29577;DHT22;16509;53.862;10.672;2022-08-01T06:33:29;19.80;99.90
29577;DHT22;16509;53.862;10.672;2022-08-01T06:35:55;18.20;99.90
29577;DHT22;16509;53.862;10.672;2022-08-01T06:38:21;18.30;99.90
29577;DHT22;16509;53.862;10.672;2022-08-01T06:40:47;18.30;99.90
29577;DHT22;16509;53.862;10.672;2022-08-01T06:43:12;18.30;99.90
29577;DHT22;16509;53.862;10.672;2022-08-01T06:45:39;20.10;99.90
29577;DHT22;16509;53.862;10.672;2022-08-01T06:48:05;18.20;99.90
29577;DHT22;16509;53.862;10.672;2022-08-01T06:50:31;18.40;99.90
29577;DHT22;16509;53.862;10.672;2022-08-01T06:52:57;18.40;99.90
29577;DHT22;16509;53.862;10.672;2022-08-01T06:55:23;19.50;99.90
29577;DHT22;16509;53.862;10.672;2022-08-01T06:57:51;19.30;99.90
29577;DHT22;16509;53.862;10.672;2022-08-01T07:00:18;18.20;99.90
29577;DHT22;16509;53.862;10.672;2022-08-01T07:02:50;18.30;99.90
29577;DHT22;16509;53.862;10.672;2022-08-01T07:05:16;18.50;99.90
29577;DHT22;16509;53.862;10.672;2022-08-01T07:07:41;18.50;99.90
29577;DHT22;16509;53.862;10.672;2022-08-01T07:10:07;18.40;99.90
29577;DHT22;16509;53.862;10.672;2022-08-01T07:12:34;18.50;99.90
29577;DHT22;16509;53.862;10.672;2022-08-01T07:15:03;18.50;99.90
29577;DHT22;16509;53.862;10.672;2022-08-01T07:17:28;18.50;99.90
29577;DHT22;16509;53.862;10.672;2022-08-01T07:19:54;18.60;99.90
29577;DHT22;16509;53.862;10.672;2022-08-01T07:22:20;18.70;99.90
29577;DHT22;16509;53.862;10.672;2022-08-01T07:24:46;19.40;99.90
29577;DHT22;16509;53.862;10.672;2022-08-01T07:27:11;18.50;99.90
29577;DHT22;16509;53.862;10.672;2022-08-01T07:29:37;18.60;99.90
29577;DHT22;16509;53.862;10.672;2022-08-01T07:32:03;18.50;99.90
29577;DHT22;16509;53.862;10.672;2022-08-01T07:34:28;18.50;99.90
29577;DHT22;16509;53.862;10.672;2022-08-01T07:36:54;18.40;99.90
29577;DHT22;16509;53.862;10.672;2022-08-01T07:39:20;18.40;99.90
29577;DHT22;16509;53.862;10.672;2022-08-01T07:41:45;18.30;99.90
29577;DHT22;16509;53.862;10.672;2022-08-01T07:44:11;18.20;99.90
29577;DHT22;16509;53.862;10.672;2022-08-01T07:46:36;19.50;99.90
29577;DHT22;16509;53.862;10.672;2022-08-01T07:49:02;18.10;99.90
29577;DHT22;16509;53.862;10.672;2022-08-01T07:51:27;18.10;99.90
29577;DHT22;16509;53.862;10.672;2022-08-01T07:53:53;18.10;99.90
29577;DHT22;16509;53.862;10.672;2022-08-01T07:56:20;18.10;99.90
29577;DHT22;16509;53.862;10.672;2022-08-01T07:58:45;18.30;99.90
29577;DHT22;16509;53.862;10.672;2022-08-01T08:01:12;18.20;99.90
29577;DHT22;16509;53.862;10.672;2022-08-01T08:03:37;18.20;99.90
29577;DHT22;16509;53.862;10.672;2022-08-01T08:06:03;18.30;99.90
29577;DHT22;16509;53.862;10.672;2022-08-01T08:08:28;18.20;99.90
29577;DHT22;16509;53.862;10.672;2022-08-01T08:10:54;18.50;99.90
29577;DHT22;16509;53.862;10.672;2022-08-01T08:13:20;18.50;99.90
29577;DHT22;16509;53.862;10.672;2022-08-01T08:15:45;18.70;99.90
29577;DHT22;16509;53.862;10.672;2022-08-01T08:18:11;18.40;99.90
29577;DHT22;16509;53.862;10.672;2022-08-01T08:20:36;18.20;99.90
29577;DHT22;16509;53.862;10.672;2022-08-01T08:23:02;18.10;99.90
29577;DHT22;16509;53.862;10.672;2022-08-01T08:25:47;18.50;99.90
29577;DHT22;16509;53.862;10.672;2022-08-01T08:28:13;18.20;99.90
29577;DHT22;16509;53.862;10.672;2022-08-01T08:30:38;18.10;99.90
29577;DHT22;16509;53.862;10.672;2022-08-01T08:33:04;18.50;99.90
29577;DHT22;16509;53.862;10.672;2022-08-01T08:35:29;18.10;99.90
29577;DHT22;16509;53.862;10.672;2022-08-01T08:37:55;18.20;99.90
29577;DHT22;16509;53.862;10.672;2022-08-01T08:40:22;18.80;99.90
29577;DHT22;16509;53.862;10.672;2022-08-01T08:42:54;18.70;99.90
29577;DHT22;16509;53.862;10.672;2022-08-01T08:45:20;18.50;99.90
29577;DHT22;16509;53.862;10.672;2022-08-01T08:47:45;18.40;99.90
29577;DHT22;16509;53.862;10.672;2022-08-01T08:50:12;19.30;99.90
29577;DHT22;16509;53.862;10.672;2022-08-01T08:52:38;18.50;99.90
29577;DHT22;16509;53.862;10.672;2022-08-01T08:55:05;18.50;99.90
29577;DHT22;16509;53.862;10.672;2022-08-01T08:57:31;18.50;99.90
29577;DHT22;16509;53.862;10.672;2022-08-01T08:59:57;18.80;99.90
29577;DHT22;16509;53.862;10.672;2022-08-01T09:02:23;19.60;99.90
29577;DHT22;16509;53.862;10.672;2022-08-01T09:04:50;18.60;99.90
29577;DHT22;16509;53.862;10.672;2022-08-01T09:07:16;18.20;99.90
29577;DHT22;16509;53.862;10.672;2022-08-01T09:09:41;18.60;99.90
29577;DHT22;16509;53.862;10.672;2022-08-01T09:12:07;18.10;99.90
29577;DHT22;16509;53.862;10.672;2022-08-01T09:14:33;18.10;99.90
29577;DHT22;16509;53.862;10.672;2022-08-01T09:17:05;18.50;99.90
29577;DHT22;16509;53.862;10.672;2022-08-01T09:19:38;18.40;99.90
29577;DHT22;16509;53.862;10.672;2022-08-01T09:22:12;18.60;99.90
29577;DHT22;16509;53.862;10.672;2022-08-01T09:24:39;18.50;99.90
29577;DHT22;16509;53.862;10.672;2022-08-01T09:27:20;19.00;99.90
29577;DHT22;16509;53.862;10.672;2022-08-01T09:29:46;18.80;99.90
29577;DHT22;16509;53.862;10.672;2022-08-01T09:32:11;18.70;99.90
29577;DHT22;16509;53.862;10.672;2022-08-01T09:34:37;19.00;99.90
29577;DHT22;16509;53.862;10.672;2022-08-01T09:37:03;19.00;99.90
29577;DHT22;16509;53.862;10.672;2022-08-01T09:39:36;20.10;99.90
29577;DHT22;16509;53.862;10.672;2022-08-01T09:42:26;20.20;99.90
29577;DHT22;16509;53.862;10.672;2022-08-01T09:44:52;19.30;99.90
29577;DHT22;16509;53.862;10.672;2022-08-01T09:47:19;19.90;99.90
29577;DHT22;16509;53.862;10.672;2022-08-01T09:49:56;19.80;99.90
29577;DHT22;16509;53.862;10.672;2022-08-01T09:52:24;19.20;99.90
29577;DHT22;16509;53.862;10.672;2022-08-01T09:55:03;19.90;99.90
29577;DHT22;16509;53.862;10.672;2022-08-01T09:57:29;19.70;99.90
29577;DHT22;16509;53.862;10.672;2022-08-01T09:59:57;19.40;99.90
29577;DHT22;16509;53.862;10.672;2022-08-01T10:02:32;20.00;99.90
29577;DHT22;16509;53.862;10.672;2022-08-01T10:04:59;20.70;99.90
29577;DHT22;16509;53.862;10.672;2022-08-01T10:07:25;21.20;99.90
29577;DHT22;16509;53.862;10.672;2022-08-01T10:09:50;20.70;99.90
29577;DHT22;16509;53.862;10.672;2022-08-01T10:12:19;20.80;99.90
29577;DHT22;16509;53.862;10.672;2022-08-01T10:14:47;20.90;99.90
29577;DHT22;16509;53.862;10.672;2022-08-01T10:17:16;20.80;99.90
29577;DHT22;16509;53.862;10.672;2022-08-01T10:19:43;20.90;99.90
29577;DHT22;16509;53.862;10.672;2022-08-01T10:22:11;21.20;99.90
29577;DHT22;16509;53.862;10.672;2022-08-01T10:24:40;21.40;99.90
29577;DHT22;16509;53.862;10.672;2022-08-01T10:27:08;21.50;99.90
29577;DHT22;16509;53.862;10.672;2022-08-01T10:29:39;21.50;99.90
29577;DHT22;16509;53.862;10.672;2022-08-01T10:32:06;21.70;99.90
29577;DHT22;16509;53.862;10.672;2022-08-01T10:34:33;21.80;99.90
29577;DHT22;16509;53.862;10.672;2022-08-01T10:37:00;22.30;99.90
29577;DHT22;16509;53.862;10.672;2022-08-01T10:39:26;22.50;99.90
29577;DHT22;16509;53.862;10.672;2022-08-01T10:41:54;23.00;99.90
29577;DHT22;16509;53.862;10.672;2022-08-01T10:44:21;22.60;99.90
29577;DHT22;16509;53.862;10.672;2022-08-01T10:46:49;22.60;99.90
29577;DHT22;16509;53.862;10.672;2022-08-01T10:49:17;23.10;99.90
29577;DHT22;16509;53.862;10.672;2022-08-01T10:51:45;23.00;99.90
29577;DHT22;16509;53.862;10.672;2022-08-01T10:54:12;22.80;99.90
29577;DHT22;16509;53.862;10.672;2022-08-01T10:56:49;23.10;99.90
29577;DHT22;16509;53.862;10.672;2022-08-01T10:59:21;22.80;99.90
29577;DHT22;16509;53.862;10.672;2022-08-01T11:07:48;23.50;99.90
29577;DHT22;16509;53.862;10.672;2022-08-01T11:10:29;23.70;99.90
29577;DHT22;16509;53.862;10.672;2022-08-01T11:12:57;23.70;99.90
29577;DHT22;16509;53.862;10.672;2022-08-01T11:15:24;23.90;99.90
29577;DHT22;16509;53.862;10.672;2022-08-01T11:17:51;24.00;99.90
29577;DHT22;16509;53.862;10.672;2022-08-01T11:20:18;24.00;99.90
29577;DHT22;16509;53.862;10.672;2022-08-01T11:33:13;24.50;99.90
29577;DHT22;16509;53.862;10.672;2022-08-01T11:38:48;24.70;99.90
29577;DHT22;16509;53.862;10.672;2022-08-01T11:41:22;24.70;99.90
29577;DHT22;16509;53.862;10.672;2022-08-01T11:44:02;24.90;99.90
29577;DHT22;16509;53.862;10.672;2022-08-01T11:47:06;24.90;99.90
29577;DHT22;16509;53.862;10.672;2022-08-01T11:52:22;25.00;99.90
29577;DHT22;16509;53.862;10.672;2022-08-01T11:57:30;24.90;99.90
29577;DHT22;16509;53.862;10.672;2022-08-01T11:59:59;24.70;99.90
29577;DHT22;16509;53.862;10.672;2022-08-01T12:02:29;25.20;99.90
29577;DHT22;16509;53.862;10.672;2022-08-01T12:05:07;25.60;99.90
29577;DHT22;16509;53.862;10.672;2022-08-01T12:07:34;25.60;99.90
29577;DHT22;16509;53.862;10.672;2022-08-01T12:10:09;25.60;99.90
29577;DHT22;16509;53.862;10.672;2022-08-01T12:12:37;25.30;99.90
29577;DHT22;16509;53.862;10.672;2022-08-01T12:15:05;25.20;99.90
29577;DHT22;16509;53.862;10.672;2022-08-01T12:17:38;25.70;99.90
29577;DHT22;16509;53.862;10.672;2022-08-01T12:20:10;25.60;99.90
29577;DHT22;16509;53.862;10.672;2022-08-01T12:22:36;25.60;99.90
29577;DHT22;16509;53.862;10.672;2022-08-01T12:25:29;25.80;99.90
29577;DHT22;16509;53.862;10.672;2022-08-01T12:27:58;25.80;99.90
29577;DHT22;16509;53.862;10.672;2022-08-01T12:30:24;26.10;99.90
29577;DHT22;16509;53.862;10.672;2022-08-01T12:32:51;26.60;99.90
29577;DHT22;16509;53.862;10.672;2022-08-01T12:35:20;26.30;99.90
29577;DHT22;16509;53.862;10.672;2022-08-01T12:37:50;26.10;99.90
29577;DHT22;16509;53.862;10.672;2022-08-01T12:40:21;26.20;99.90
29577;DHT22;16509;53.862;10.672;2022-08-01T12:42:48;26.00;99.90
29577;DHT22;16509;53.862;10.672;2022-08-01T12:45:17;26.10;99.90
29577;DHT22;16509;53.862;10.672;2022-08-01T12:47:43;26.10;99.90
29577;DHT22;16509;53.862;10.672;2022-08-01T12:50:16;25.50;99.90
29577;DHT22;16509;53.862;10.672;2022-08-01T12:52:46;25.20;99.90
29577;DHT22;16509;53.862;10.672;2022-08-01T12:55:17;24.90;99.90
29577;DHT22;16509;53.862;10.672;2022-08-01T12:57:45;24.80;99.90
29577;DHT22;16509;53.862;10.672;2022-08-01T13:00:21;24.70;99.90
29577;DHT22;16509;53.862;10.672;2022-08-01T13:02:48;24.10;99.90
29577;DHT22;16509;53.862;10.672;2022-08-01T13:05:15;24.30;99.90
29577;DHT22;16509;53.862;10.672;2022-08-01T13:07:45;24.70;99.90
29577;DHT22;16509;53.862;10.672;2022-08-01T13:10:12;24.70;99.90
29577;DHT22;16509;53.862;10.672;2022-08-01T13:12:39;24.60;99.90
29577;DHT22;16509;53.862;10.672;2022-08-01T13:15:20;24.30;99.90
29577;DHT22;16509;53.862;10.672;2022-08-01T13:17:45;24.40;99.90
29577;DHT22;16509;53.862;10.672;2022-08-01T13:20:24;24.50;99.90
29577;DHT22;16509;53.862;10.672;2022-08-01T13:22:50;24.40;99.90
29577;DHT22;16509;53.862;10.672;2022-08-01T13:25:17;24.30;99.90
29577;DHT22;16509;53.862;10.672;2022-08-01T13:27:44;24.70;99.90
29577;DHT22;16509;53.862;10.672;2022-08-01T13:30:17;25.10;99.90
29577;DHT22;16509;53.862;10.672;2022-08-01T13:33:00;25.80;99.90
29577;DHT22;16509;53.862;10.672;2022-08-01T13:35:26;25.50;99.90
29577;DHT22;16509;53.862;10.672;2022-08-01T13:37:52;25.00;99.90
29577;DHT22;16509;53.862;10.672;2022-08-01T13:40:27;24.60;99.90
29577;DHT22;16509;53.862;10.672;2022-08-01T13:42:53;24.50;99.90
29577;DHT22;16509;53.862;10.672;2022-08-01T13:45:20;24.50;99.90
29577;DHT22;16509;53.862;10.672;2022-08-01T13:47:46;24.70;99.90
29577;DHT22;16509;53.862;10.672;2022-08-01T13:50:12;24.50;99.90
29577;DHT22;16509;53.862;10.672;2022-08-01T13:52:37;24.20;99.90
29577;DHT22;16509;53.862;10.672;2022-08-01T13:55:03;24.20;99.90
29577;DHT22;16509;53.862;10.672;2022-08-01T13:57:29;24.00;99.90
29577;DHT22;16509;53.862;10.672;2022-08-01T13:59:55;23.80;99.90
29577;DHT22;16509;53.862;10.672;2022-08-01T14:02:20;23.80;99.90
29577;DHT22;16509;53.862;10.672;2022-08-01T14:04:46;24.10;99.90
29577;DHT22;16509;53.862;10.672;2022-08-01T14:07:12;23.60;99.90
29577;DHT22;16509;53.862;10.672;2022-08-01T14:09:38;23.90;99.90
29577;DHT22;16509;53.862;10.672;2022-08-01T14:12:04;23.50;99.90
29577;DHT22;16509;53.862;10.672;2022-08-01T14:14:30;23.50;99.90
29577;DHT22;16509;53.862;10.672;2022-08-01T14:16:55;23.50;99.90
29577;DHT22;16509;53.862;10.672;2022-08-01T14:19:21;24.40;99.90
29577;DHT22;16509;53.862;10.672;2022-08-01T14:21:47;23.30;99.90
29577;DHT22;16509;53.862;10.672;2022-08-01T14:24:12;23.50;99.90
29577;DHT22;16509;53.862;10.672;2022-08-01T14:26:38;23.40;99.90
29577;DHT22;16509;53.862;10.672;2022-08-01T14:29:03;23.20;99.90
29577;DHT22;16509;53.862;10.672;2022-08-01T14:31:29;23.00;99.90
29577;DHT22;16509;53.862;10.672;2022-08-01T14:33:55;22.80;99.90
29577;DHT22;16509;53.862;10.672;2022-08-01T14:36:21;23.00;99.90
29577;DHT22;16509;53.862;10.672;2022-08-01T14:38:46;22.90;99.90
29577;DHT22;16509;53.862;10.672;2022-08-01T14:41:13;22.90;99.90
29577;DHT22;16509;53.862;10.672;2022-08-01T14:43:39;22.90;99.90
29577;DHT22;16509;53.862;10.672;2022-08-01T14:46:04;22.90;99.90
29577;DHT22;16509;53.862;10.672;2022-08-01T14:48:30;23.00;99.90
29577;DHT22;16509;53.862;10.672;2022-08-01T14:50:57;22.80;99.90
29577;DHT22;16509;53.862;10.672;2022-08-01T14:53:23;22.80;99.90
29577;DHT22;16509;53.862;10.672;2022-08-01T14:55:48;23.20;99.90
29577;DHT22;16509;53.862;10.672;2022-08-01T14:58:14;23.60;99.90
29577;DHT22;16509;53.862;10.672;2022-08-01T15:00:39;22.80;99.90
29577;DHT22;16509;53.862;10.672;2022-08-01T15:03:05;22.70;99.90
29577;DHT22;16509;53.862;10.672;2022-08-01T15:05:31;22.60;99.90
29577;DHT22;16509;53.862;10.672;2022-08-01T15:07:58;22.70;99.90
29577;DHT22;16509;53.862;10.672;2022-08-01T15:10:23;22.60;99.90
29577;DHT22;16509;53.862;10.672;2022-08-01T15:12:49;22.60;99.90
29577;DHT22;16509;53.862;10.672;2022-08-01T15:15:14;23.50;99.90
29577;DHT22;16509;53.862;10.672;2022-08-01T15:17:40;22.50;99.90
29577;DHT22;16509;53.862;10.672;2022-08-01T15:20:06;22.70;99.90
29577;DHT22;16509;53.862;10.672;2022-08-01T15:22:33;22.40;99.90
29577;DHT22;16509;53.862;10.672;2022-08-01T15:25:00;22.40;99.90
29577;DHT22;16509;53.862;10.672;2022-08-01T15:27:26;22.30;99.90
29577;DHT22;16509;53.862;10.672;2022-08-01T15:29:54;22.30;99.90
29577;DHT22;16509;53.862;10.672;2022-08-01T15:32:19;22.20;99.90
29577;DHT22;16509;53.862;10.672;2022-08-01T15:34:45;22.20;99.90
29577;DHT22;16509;53.862;10.672;2022-08-01T15:37:11;22.10;99.90
29577;DHT22;16509;53.862;10.672;2022-08-01T15:39:37;22.10;99.90
29577;DHT22;16509;53.862;10.672;2022-08-01T15:42:11;22.10;99.90
29577;DHT22;16509;53.862;10.672;2022-08-01T15:44:37;22.30;99.90
29577;DHT22;16509;53.862;10.672;2022-08-01T15:47:05;22.00;99.90
29577;DHT22;16509;53.862;10.672;2022-08-01T15:49:31;22.00;99.90
29577;DHT22;16509;53.862;10.672;2022-08-01T15:51:57;21.80;99.90
29577;DHT22;16509;53.862;10.672;2022-08-01T15:54:23;22.00;99.90
29577;DHT22;16509;53.862;10.672;2022-08-01T15:56:49;21.90;99.90